sensor_id;sensor_type;location;lat;lon;timestamp;P1;durP1;ratioP1;P2;durP2;ratioP2
20140;SDS011;10231;47.702;9.826;2022-12-07T00:00:52;30.30;;;20.57;;
20140;SDS011;10231;47.702;9.826;2022-12-07T00:03:17;29.07;;;19.87;;
20140;SDS011;10231;47.702;9.826;2022-12-07T00:05:43;29.97;;;19.77;;
20140;SDS011;10231;47.702;9.826;2022-12-07T00:08:08;29.27;;;18.83;;
20140;SDS011;10231;47.702;9.826;2022-12-07T00:10:34;30.27;;;20.13;;
20140;SDS011;10231;47.702;9.826;2022-12-07T00:13:00;29.33;;;19.73;;
20140;SDS011;10231;47.702;9.826;2022-12-07T00:15:25;28.90;;;20.27;;
20140;SDS011;10231;47.702;9.826;2022-12-07T00:17:51;30.77;;;20.37;;
20140;SDS011;10231;47.702;9.826;2022-12-07T00:20:16;31.10;;;20.77;;
20140;SDS011;10231;47.702;9.826;2022-12-07T00:22:42;30.00;;;19.47;;
20140;SDS011;10231;47.702;9.826;2022-12-07T00:25:08;27.17;;;19.13;;
20140;SDS011;10231;47.702;9.826;2022-12-07T00:27:33;28.77;;;19.97;;
20140;SDS011;10231;47.702;9.826;2022-12-07T00:29:59;29.33;;;19.87;;
20140;SDS011;10231;47.702;9.826;2022-12-07T00:32:24;28.97;;;20.27;;
20140;SDS011;10231;47.702;9.826;2022-12-07T00:34:51;29.97;;;19.93;;
20140;SDS011;10231;47.702;9.826;2022-12-07T00:37:16;30.37;;;19.87;;
20140;SDS011;10231;47.702;9.826;2022-12-07T00:39:42;29.50;;;19.40;;
20140;SDS011;10231;47.702;9.826;2022-12-07T00:42:07;28.23;;;18.83;;
20140;SDS011;10231;47.702;9.826;2022-12-07T00:44:33;27.07;;;18.37;;
20140;SDS011;10231;47.702;9.826;2022-12-07T00:46:58;27.27;;;19.37;;
20140;SDS011;10231;47.702;9.826;2022-12-07T00:49:24;29.43;;;20.37;;
20140;SDS011;10231;47.702;9.826;2022-12-07T00:51:49;28.27;;;19.80;;
20140;SDS011;10231;47.702;9.826;2022-12-07T00:54:15;29.10;;;19.33;;
20140;SDS011;10231;47.702;9.826;2022-12-07T00:56:40;27.63;;;19.57;;
20140;SDS011;10231;47.702;9.826;2022-12-07T00:59:06;27.70;;;19.80;;
20140;SDS011;10231;47.702;9.826;2022-12-07T01:01:33;27.90;;;19.30;;
20140;SDS011;10231;47.702;9.826;2022-12-07T01:04:00;28.10;;;18.57;;
20140;SDS011;10231;47.702;9.826;2022-12-07T01:06:26;27.57;;;20.33;;
20140;SDS011;10231;47.702;9.826;2022-12-07T01:08:52;29.63;;;20.00;;
20140;SDS011;10231;47.702;9.826;2022-12-07T01:11:20;29.60;;;20.90;;
20140;SDS011;10231;47.702;9.826;2022-12-07T01:13:49;31.80;;;20.27;;
20140;SDS011;10231;47.702;9.826;2022-12-07T01:16:16;28.37;;;20.57;;
20140;SDS011;10231;47.702;9.826;2022-12-07T01:18:42;31.23;;;21.03;;
20140;SDS011;10231;47.702;9.826;2022-12-07T01:21:15;33.10;;;23.40;;
20140;SDS011;10231;47.702;9.826;2022-12-07T01:23:42;34.53;;;24.00;;
20140;SDS011;10231;47.702;9.826;2022-12-07T01:26:12;31.17;;;24.90;;
20140;SDS011;10231;47.702;9.826;2022-12-07T01:28:39;28.37;;;19.83;;
20140;SDS011;10231;47.702;9.826;2022-12-07T01:31:06;26.53;;;18.37;;
20140;SDS011;10231;47.702;9.826;2022-12-07T01:33:33;26.80;;;18.70;;
20140;SDS011;10231;47.702;9.826;2022-12-07T01:36:04;26.40;;;19.07;;
20140;SDS011;10231;47.702;9.826;2022-12-07T01:38:31;27.33;;;18.87;;
20140;SDS011;10231;47.702;9.826;2022-12-07T01:40:57;28.20;;;19.33;;
20140;SDS011;10231;47.702;9.826;2022-12-07T01:43:24;30.57;;;20.50;;
20140;SDS011;10231;47.702;9.826;2022-12-07T01:45:52;26.67;;;19.13;;
20140;SDS011;10231;47.702;9.826;2022-12-07T01:48:18;25.13;;;18.60;;
20140;SDS011;10231;47.702;9.826;2022-12-07T01:50:48;28.63;;;20.30;;
20140;SDS011;10231;47.702;9.826;2022-12-07T01:53:16;26.93;;;19.03;;
20140;SDS011;10231;47.702;9.826;2022-12-07T01:55:44;26.83;;;19.73;;
20140;SDS011;10231;47.702;9.826;2022-12-07T01:58:12;25.83;;;18.93;;
20140;SDS011;10231;47.702;9.826;2022-12-07T02:00:38;27.77;;;20.97;;
20140;SDS011;10231;47.702;9.826;2022-12-07T02:03:10;30.10;;;20.90;;
20140;SDS011;10231;47.702;9.826;2022-12-07T02:05:40;28.23;;;19.60;;
20140;SDS011;10231;47.702;9.826;2022-12-07T02:08:08;31.87;;;20.37;;
20140;SDS011;10231;47.702;9.826;2022-12-07T02:10:35;30.27;;;20.67;;
20140;SDS011;10231;47.702;9.826;2022-12-07T02:13:11;31.20;;;21.17;;
20140;SDS011;10231;47.702;9.826;2022-12-07T02:15:44;33.20;;;20.63;;
20140;SDS011;10231;47.702;9.826;2022-12-07T02:21:11;28.87;;;19.80;;
20140;SDS011;10231;47.702;9.826;2022-12-07T02:26:23;30.30;;;20.17;;
20140;SDS011;10231;47.702;9.826;2022-12-07T02:29:22;29.20;;;20.80;;
20140;SDS011;10231;47.702;9.826;2022-12-07T02:31:53;30.50;;;21.43;;
20140;SDS011;10231;47.702;9.826;2022-12-07T02:34:37;28.50;;;19.63;;
20140;SDS011;10231;47.702;9.826;2022-12-07T02:37:19;29.93;;;19.47;;
20140;SDS011;10231;47.702;9.826;2022-12-07T02:39:56;29.10;;;19.70;;
20140;SDS011;10231;47.702;9.826;2022-12-07T02:42:30;31.33;;;20.90;;
20140;SDS011;10231;47.702;9.826;2022-12-07T02:45:00;31.00;;;20.37;;
20140;SDS011;10231;47.702;9.826;2022-12-07T02:47:26;31.80;;;21.17;;
20140;SDS011;10231;47.702;9.826;2022-12-07T02:49:54;30.23;;;20.60;;
20140;SDS011;10231;47.702;9.826;2022-12-07T02:52:20;31.77;;;21.10;;
20140;SDS011;10231;47.702;9.826;2022-12-07T02:54:46;32.90;;;21.20;;
20140;SDS011;10231;47.702;9.826;2022-12-07T02:57:27;30.97;;;20.83;;
20140;SDS011;10231;47.702;9.826;2022-12-07T03:00:00;32.17;;;21.20;;
20140;SDS011;10231;47.702;9.826;2022-12-07T03:02:58;30.30;;;20.70;;
20140;SDS011;10231;47.702;9.826;2022-12-07T03:08:31;30.70;;;20.47;;
20140;SDS011;10231;47.702;9.826;2022-12-07T03:11:04;27.90;;;18.43;;
20140;SDS011;10231;47.702;9.826;2022-12-07T03:13:37;29.67;;;20.97;;
20140;SDS011;10231;47.702;9.826;2022-12-07T03:16:15;27.30;;;18.77;;
20140;SDS011;10231;47.702;9.826;2022-12-07T03:18:48;32.23;;;19.97;;
20140;SDS011;10231;47.702;9.826;2022-12-07T03:21:32;32.23;;;20.53;;
20140;SDS011;10231;47.702;9.826;2022-12-07T03:24:38;29.57;;;19.90;;
20140;SDS011;10231;47.702;9.826;2022-12-07T03:27:16;28.17;;;18.93;;
20140;SDS011;10231;47.702;9.826;2022-12-07T03:29:48;30.10;;;19.50;;
20140;SDS011;10231;47.702;9.826;2022-12-07T03:40:23;24.60;;;17.70;;
20140;SDS011;10231;47.702;9.826;2022-12-07T03:42:58;25.40;;;16.80;;
20140;SDS011;10231;47.702;9.826;2022-12-07T03:45:29;26.53;;;17.20;;
20140;SDS011;10231;47.702;9.826;2022-12-07T03:48:04;25.30;;;18.10;;
20140;SDS011;10231;47.702;9.826;2022-12-07T03:50:53;28.73;;;18.67;;
20140;SDS011;10231;47.702;9.826;2022-12-07T03:53:26;30.53;;;19.13;;
20140;SDS011;10231;47.702;9.826;2022-12-07T03:55:59;27.87;;;18.73;;
20140;SDS011;10231;47.702;9.826;2022-12-07T03:58:26;29.60;;;19.17;;
20140;SDS011;10231;47.702;9.826;2022-12-07T04:00:52;27.23;;;18.70;;
20140;SDS011;10231;47.702;9.826;2022-12-07T04:03:18;31.60;;;20.43;;
20140;SDS011;10231;47.702;9.826;2022-12-07T04:05:43;28.70;;;19.03;;
20140;SDS011;10231;47.702;9.826;2022-12-07T04:08:09;28.83;;;19.40;;
20140;SDS011;10231;47.702;9.826;2022-12-07T04:10:35;30.13;;;18.97;;
20140;SDS011;10231;47.702;9.826;2022-12-07T04:13:01;29.70;;;19.20;;
20140;SDS011;10231;47.702;9.826;2022-12-07T04:15:26;29.13;;;19.50;;
20140;SDS011;10231;47.702;9.826;2022-12-07T04:17:52;28.33;;;18.83;;
20140;SDS011;10231;47.702;9.826;2022-12-07T04:20:18;29.70;;;20.17;;
20140;SDS011;10231;47.702;9.826;2022-12-07T04:22:44;29.80;;;19.90;;
20140;SDS011;10231;47.702;9.826;2022-12-07T04:25:10;29.83;;;19.53;;
20140;SDS011;10231;47.702;9.826;2022-12-07T04:27:35;31.40;;;19.77;;
20140;SDS011;10231;47.702;9.826;2022-12-07T04:30:01;29.37;;;20.23;;
20140;SDS011;10231;47.702;9.826;2022-12-07T04:32:27;28.50;;;18.63;;
20140;SDS011;10231;47.702;9.826;2022-12-07T04:34:53;29.77;;;19.90;;
20140;SDS011;10231;47.702;9.826;2022-12-07T04:37:19;25.80;;;18.97;;
20140;SDS011;10231;47.702;9.826;2022-12-07T04:39:44;29.73;;;19.37;;
20140;SDS011;10231;47.702;9.826;2022-12-07T04:42:10;33.37;;;19.00;;
20140;SDS011;10231;47.702;9.826;2022-12-07T04:44:37;26.73;;;18.40;;
20140;SDS011;10231;47.702;9.826;2022-12-07T04:47:03;29.27;;;19.17;;
20140;SDS011;10231;47.702;9.826;2022-12-07T04:49:28;28.87;;;18.63;;
20140;SDS011;10231;47.702;9.826;2022-12-07T04:51:54;31.83;;;18.60;;
20140;SDS011;10231;47.702;9.826;2022-12-07T04:54:20;29.97;;;18.70;;
20140;SDS011;10231;47.702;9.826;2022-12-07T04:56:46;27.37;;;18.80;;
20140;SDS011;10231;47.702;9.826;2022-12-07T04:59:12;28.73;;;19.00;;
20140;SDS011;10231;47.702;9.826;2022-12-07T05:01:39;29.40;;;19.10;;
20140;SDS011;10231;47.702;9.826;2022-12-07T05:04:05;35.17;;;19.13;;
20140;SDS011;10231;47.702;9.826;2022-12-07T05:06:31;30.83;;;19.10;;
20140;SDS011;10231;47.702;9.826;2022-12-07T05:08:57;28.43;;;19.87;;
20140;SDS011;10231;47.702;9.826;2022-12-07T05:11:22;29.00;;;19.33;;
20140;SDS011;10231;47.702;9.826;2022-12-07T05:14:03;28.63;;;18.73;;
20140;SDS011;10231;47.702;9.826;2022-12-07T05:16:31;30.00;;;18.47;;
20140;SDS011;10231;47.702;9.826;2022-12-07T05:18:57;30.43;;;19.20;;
20140;SDS011;10231;47.702;9.826;2022-12-07T05:21:23;30.90;;;19.40;;
20140;SDS011;10231;47.702;9.826;2022-12-07T05:23:49;30.80;;;19.30;;
20140;SDS011;10231;47.702;9.826;2022-12-07T05:26:14;28.27;;;18.20;;
20140;SDS011;10231;47.702;9.826;2022-12-07T05:28:40;27.03;;;17.63;;
20140;SDS011;10231;47.702;9.826;2022-12-07T05:31:06;31.17;;;17.53;;
20140;SDS011;10231;47.702;9.826;2022-12-07T05:33:31;25.03;;;17.50;;
20140;SDS011;10231;47.702;9.826;2022-12-07T05:35:57;25.53;;;16.17;;
20140;SDS011;10231;47.702;9.826;2022-12-07T05:38:23;24.67;;;17.10;;
20140;SDS011;10231;47.702;9.826;2022-12-07T05:40:50;26.83;;;18.70;;
20140;SDS011;10231;47.702;9.826;2022-12-07T05:43:15;27.33;;;18.97;;
20140;SDS011;10231;47.702;9.826;2022-12-07T05:45:41;25.20;;;17.93;;
20140;SDS011;10231;47.702;9.826;2022-12-07T05:48:06;28.40;;;18.23;;
20140;SDS011;10231;47.702;9.826;2022-12-07T05:50:32;27.37;;;18.50;;
20140;SDS011;10231;47.702;9.826;2022-12-07T05:52:58;28.40;;;18.40;;
20140;SDS011;10231;47.702;9.826;2022-12-07T05:55:23;27.53;;;18.00;;
20140;SDS011;10231;47.702;9.826;2022-12-07T05:57:49;24.90;;;16.77;;
20140;SDS011;10231;47.702;9.826;2022-12-07T06:00:33;26.40;;;17.47;;
20140;SDS011;10231;47.702;9.826;2022-12-07T06:02:58;24.23;;;18.20;;
20140;SDS011;10231;47.702;9.826;2022-12-07T06:05:24;26.73;;;18.17;;
20140;SDS011;10231;47.702;9.826;2022-12-07T06:07:50;26.47;;;16.93;;
20140;SDS011;10231;47.702;9.826;2022-12-07T06:10:15;26.77;;;17.00;;
20140;SDS011;10231;47.702;9.826;2022-12-07T06:12:41;27.53;;;17.67;;
20140;SDS011;10231;47.702;9.826;2022-12-07T06:15:08;26.07;;;17.30;;
20140;SDS011;10231;47.702;9.826;2022-12-07T06:17:35;27.30;;;17.77;;
20140;SDS011;10231;47.702;9.826;2022-12-07T06:20:01;26.17;;;17.30;;
20140;SDS011;10231;47.702;9.826;2022-12-07T06:22:27;24.63;;;16.30;;
20140;SDS011;10231;47.702;9.826;2022-12-07T06:24:53;23.93;;;16.63;;
20140;SDS011;10231;47.702;9.826;2022-12-07T06:27:19;23.20;;;16.20;;
20140;SDS011;10231;47.702;9.826;2022-12-07T06:29:44;24.63;;;17.03;;
20140;SDS011;10231;47.702;9.826;2022-12-07T06:32:10;20.70;;;15.57;;
20140;SDS011;10231;47.702;9.826;2022-12-07T06:34:36;24.80;;;17.13;;
20140;SDS011;10231;47.702;9.826;2022-12-07T06:37:02;22.53;;;15.87;;
20140;SDS011;10231;47.702;9.826;2022-12-07T06:39:28;23.17;;;16.30;;
20140;SDS011;10231;47.702;9.826;2022-12-07T06:41:54;19.97;;;14.13;;
20140;SDS011;10231;47.702;9.826;2022-12-07T06:44:20;22.00;;;15.10;;
20140;SDS011;10231;47.702;9.826;2022-12-07T06:46:47;21.00;;;14.63;;
20140;SDS011;10231;47.702;9.826;2022-12-07T06:49:13;21.50;;;15.07;;
20140;SDS011;10231;47.702;9.826;2022-12-07T06:51:38;20.97;;;14.57;;
20140;SDS011;10231;47.702;9.826;2022-12-07T06:54:12;21.07;;;14.67;;
20140;SDS011;10231;47.702;9.826;2022-12-07T06:56:39;20.07;;;14.20;;
20140;SDS011;10231;47.702;9.826;2022-12-07T06:59:05;22.43;;;14.47;;
20140;SDS011;10231;47.702;9.826;2022-12-07T07:01:32;17.37;;;13.10;;
20140;SDS011;10231;47.702;9.826;2022-12-07T07:03:58;16.90;;;13.43;;
20140;SDS011;10231;47.702;9.826;2022-12-07T07:06:23;19.33;;;14.30;;
20140;SDS011;10231;47.702;9.826;2022-12-07T07:08:49;19.97;;;13.73;;
20140;SDS011;10231;47.702;9.826;2022-12-07T07:11:15;19.43;;;13.90;;
20140;SDS011;10231;47.702;9.826;2022-12-07T07:13:42;18.57;;;13.97;;
20140;SDS011;10231;47.702;9.826;2022-12-07T07:16:07;20.67;;;14.53;;
20140;SDS011;10231;47.702;9.826;2022-12-07T07:18:33;19.83;;;14.40;;
20140;SDS011;10231;47.702;9.826;2022-12-07T07:20:58;20.67;;;15.20;;
20140;SDS011;10231;47.702;9.826;2022-12-07T07:23:24;26.97;;;16.13;;
20140;SDS011;10231;47.702;9.826;2022-12-07T07:25:50;25.70;;;15.80;;
20140;SDS011;10231;47.702;9.826;2022-12-07T07:28:16;22.47;;;15.10;;
20140;SDS011;10231;47.702;9.826;2022-12-07T07:30:42;21.30;;;15.63;;
20140;SDS011;10231;47.702;9.826;2022-12-07T07:33:08;21.43;;;15.20;;
20140;SDS011;10231;47.702;9.826;2022-12-07T07:35:34;21.93;;;15.93;;
20140;SDS011;10231;47.702;9.826;2022-12-07T07:38:00;22.77;;;16.03;;
20140;SDS011;10231;47.702;9.826;2022-12-07T07:40:26;23.27;;;15.83;;
20140;SDS011;10231;47.702;9.826;2022-12-07T07:42:56;25.50;;;17.77;;
20140;SDS011;10231;47.702;9.826;2022-12-07T07:45:22;24.60;;;18.57;;
20140;SDS011;10231;47.702;9.826;2022-12-07T07:47:49;25.57;;;18.67;;
20140;SDS011;10231;47.702;9.826;2022-12-07T07:50:15;25.27;;;18.57;;
20140;SDS011;10231;47.702;9.826;2022-12-07T07:52:41;24.97;;;17.90;;
20140;SDS011;10231;47.702;9.826;2022-12-07T07:55:07;27.37;;;19.23;;
20140;SDS011;10231;47.702;9.826;2022-12-07T07:57:34;24.07;;;17.60;;
20140;SDS011;10231;47.702;9.826;2022-12-07T08:00:00;24.80;;;17.13;;
20140;SDS011;10231;47.702;9.826;2022-12-07T08:02:28;26.40;;;18.37;;
20140;SDS011;10231;47.702;9.826;2022-12-07T08:04:54;26.27;;;18.37;;
20140;SDS011;10231;47.702;9.826;2022-12-07T08:07:20;26.20;;;18.53;;
20140;SDS011;10231;47.702;9.826;2022-12-07T08:09:45;26.00;;;17.53;;
20140;SDS011;10231;47.702;9.826;2022-12-07T08:12:11;23.63;;;17.60;;
20140;SDS011;10231;47.702;9.826;2022-12-07T08:14:37;25.33;;;17.63;;
20140;SDS011;10231;47.702;9.826;2022-12-07T08:17:02;28.47;;;17.63;;
20140;SDS011;10231;47.702;9.826;2022-12-07T08:19:28;24.80;;;17.90;;
20140;SDS011;10231;47.702;9.826;2022-12-07T08:21:54;22.57;;;17.07;;
20140;SDS011;10231;47.702;9.826;2022-12-07T08:24:20;28.33;;;17.73;;
20140;SDS011;10231;47.702;9.826;2022-12-07T08:26:46;26.80;;;17.50;;
20140;SDS011;10231;47.702;9.826;2022-12-07T08:29:11;28.07;;;18.37;;
20140;SDS011;10231;47.702;9.826;2022-12-07T08:31:37;22.20;;;17.00;;
20140;SDS011;10231;47.702;9.826;2022-12-07T08:34:03;24.60;;;18.17;;
20140;SDS011;10231;47.702;9.826;2022-12-07T08:36:28;20.53;;;15.77;;
20140;SDS011;10231;47.702;9.826;2022-12-07T08:38:54;25.00;;;16.97;;
20140;SDS011;10231;47.702;9.826;2022-12-07T08:41:19;27.70;;;18.10;;
20140;SDS011;10231;47.702;9.826;2022-12-07T08:43:45;24.40;;;16.07;;
20140;SDS011;10231;47.702;9.826;2022-12-07T08:48:44;25.67;;;17.10;;
20140;SDS011;10231;47.702;9.826;2022-12-07T08:51:14;26.00;;;17.53;;
20140;SDS011;10231;47.702;9.826;2022-12-07T08:53:40;27.87;;;17.63;;
20140;SDS011;10231;47.702;9.826;2022-12-07T08:56:07;23.83;;;16.63;;
20140;SDS011;10231;47.702;9.826;2022-12-07T08:58:37;22.97;;;15.73;;
20140;SDS011;10231;47.702;9.826;2022-12-07T09:01:04;21.60;;;15.73;;
20140;SDS011;10231;47.702;9.826;2022-12-07T09:03:30;23.00;;;15.80;;
20140;SDS011;10231;47.702;9.826;2022-12-07T09:05:57;22.17;;;14.37;;
20140;SDS011;10231;47.702;9.826;2022-12-07T09:08:27;23.63;;;15.50;;
20140;SDS011;10231;47.702;9.826;2022-12-07T09:11:04;19.40;;;13.80;;
20140;SDS011;10231;47.702;9.826;2022-12-07T09:13:30;21.97;;;15.07;;
20140;SDS011;10231;47.702;9.826;2022-12-07T09:15:59;22.10;;;14.53;;
20140;SDS011;10231;47.702;9.826;2022-12-07T09:18:24;23.03;;;15.70;;
20140;SDS011;10231;47.702;9.826;2022-12-07T09:20:59;24.60;;;14.83;;
20140;SDS011;10231;47.702;9.826;2022-12-07T09:23:27;19.93;;;14.50;;
20140;SDS011;10231;47.702;9.826;2022-12-07T09:26:02;20.57;;;14.90;;
20140;SDS011;10231;47.702;9.826;2022-12-07T09:28:32;20.13;;;15.03;;
20140;SDS011;10231;47.702;9.826;2022-12-07T09:31:05;21.13;;;14.67;;
20140;SDS011;10231;47.702;9.826;2022-12-07T09:33:31;19.67;;;14.27;;
20140;SDS011;10231;47.702;9.826;2022-12-07T09:36:00;21.30;;;15.13;;
20140;SDS011;10231;47.702;9.826;2022-12-07T09:38:28;21.00;;;15.67;;
20140;SDS011;10231;47.702;9.826;2022-12-07T09:40:54;47.80;;;17.07;;
20140;SDS011;10231;47.702;9.826;2022-12-07T09:43:21;23.40;;;14.87;;
20140;SDS011;10231;47.702;9.826;2022-12-07T09:45:50;24.03;;;15.13;;
20140;SDS011;10231;47.702;9.826;2022-12-07T09:48:23;20.97;;;14.33;;
20140;SDS011;10231;47.702;9.826;2022-12-07T09:50:54;21.23;;;14.37;;
20140;SDS011;10231;47.702;9.826;2022-12-07T09:53:27;22.93;;;14.80;;
20140;SDS011;10231;47.702;9.826;2022-12-07T09:55:57;22.00;;;15.27;;
20140;SDS011;10231;47.702;9.826;2022-12-07T09:58:26;21.93;;;14.53;;
20140;SDS011;10231;47.702;9.826;2022-12-07T10:00:55;22.60;;;15.90;;
20140;SDS011;10231;47.702;9.826;2022-12-07T10:03:25;19.17;;;13.83;;
20140;SDS011;10231;47.702;9.826;2022-12-07T10:05:52;22.50;;;14.47;;
20140;SDS011;10231;47.702;9.826;2022-12-07T10:08:18;19.37;;;14.20;;
20140;SDS011;10231;47.702;9.826;2022-12-07T10:10:44;19.47;;;12.73;;
20140;SDS011;10231;47.702;9.826;2022-12-07T10:13:19;18.57;;;12.93;;
20140;SDS011;10231;47.702;9.826;2022-12-07T10:15:47;17.77;;;11.60;;
20140;SDS011;10231;47.702;9.826;2022-12-07T10:18:33;18.87;;;12.43;;
20140;SDS011;10231;47.702;9.826;2022-12-07T10:23:34;18.20;;;13.47;;
20140;SDS011;10231;47.702;9.826;2022-12-07T10:28:51;18.87;;;13.60;;
20140;SDS011;10231;47.702;9.826;2022-12-07T10:31:20;17.90;;;13.17;;
20140;SDS011;10231;47.702;9.826;2022-12-07T10:33:54;19.43;;;13.57;;
20140;SDS011;10231;47.702;9.826;2022-12-07T10:39:13;17.70;;;14.43;;
20140;SDS011;10231;47.702;9.826;2022-12-07T10:41:54;21.00;;;15.23;;
20140;SDS011;10231;47.702;9.826;2022-12-07T10:44:22;21.57;;;14.93;;
20140;SDS011;10231;47.702;9.826;2022-12-07T11:00:24;18.17;;;14.03;;
20140;SDS011;10231;47.702;9.826;2022-12-07T11:10:44;16.87;;;12.40;;
20140;SDS011;10231;47.702;9.826;2022-12-07T11:13:23;15.47;;;11.33;;
20140;SDS011;10231;47.702;9.826;2022-12-07T11:19:01;15.37;;;11.17;;
20140;SDS011;10231;47.702;9.826;2022-12-07T11:21:58;14.73;;;11.77;;
20140;SDS011;10231;47.702;9.826;2022-12-07T11:30:08;16.63;;;12.50;;
20140;SDS011;10231;47.702;9.826;2022-12-07T11:38:14;14.37;;;11.77;;
20140;SDS011;10231;47.702;9.826;2022-12-07T11:40:45;15.37;;;11.70;;
20140;SDS011;10231;47.702;9.826;2022-12-07T11:46:03;14.77;;;12.23;;
20140;SDS011;10231;47.702;9.826;2022-12-07T11:48:35;16.30;;;12.50;;
20140;SDS011;10231;47.702;9.826;2022-12-07T11:51:12;14.57;;;12.53;;
20140;SDS011;10231;47.702;9.826;2022-12-07T11:53:39;13.13;;;11.70;;
20140;SDS011;10231;47.702;9.826;2022-12-07T12:03:51;13.03;;;11.13;;
20140;SDS011;10231;47.702;9.826;2022-12-07T12:06:21;13.30;;;11.20;;
20140;SDS011;10231;47.702;9.826;2022-12-07T12:08:54;12.33;;;10.53;;
20140;SDS011;10231;47.702;9.826;2022-12-07T12:11:39;12.53;;;10.83;;
20140;SDS011;10231;47.702;9.826;2022-12-07T12:22:44;11.73;;;10.47;;
20140;SDS011;10231;47.702;9.826;2022-12-07T12:25:27;12.93;;;11.50;;
20140;SDS011;10231;47.702;9.826;2022-12-07T12:27:57;14.23;;;12.07;;
20140;SDS011;10231;47.702;9.826;2022-12-07T12:46:47;16.83;;;13.47;;
20140;SDS011;10231;47.702;9.826;2022-12-07T12:59:28;16.23;;;13.40;;
20140;SDS011;10231;47.702;9.826;2022-12-07T13:02:05;17.33;;;14.03;;
20140;SDS011;10231;47.702;9.826;2022-12-07T13:04:48;18.43;;;14.17;;
20140;SDS011;10231;47.702;9.826;2022-12-07T13:12:59;16.37;;;13.47;;
20140;SDS011;10231;47.702;9.826;2022-12-07T13:15:46;16.83;;;13.37;;
20140;SDS011;10231;47.702;9.826;2022-12-07T13:23:32;19.17;;;14.47;;
20140;SDS011;10231;47.702;9.826;2022-12-07T13:33:43;15.30;;;12.80;;
20140;SDS011;10231;47.702;9.826;2022-12-07T13:36:12;18.33;;;14.30;;
20140;SDS011;10231;47.702;9.826;2022-12-07T13:39:10;18.47;;;13.33;;
20140;SDS011;10231;47.702;9.826;2022-12-07T13:41:49;15.30;;;13.07;;
20140;SDS011;10231;47.702;9.826;2022-12-07T13:44:16;15.40;;;12.13;;
20140;SDS011;10231;47.702;9.826;2022-12-07T13:49:48;13.10;;;10.50;;
20140;SDS011;10231;47.702;9.826;2022-12-07T13:52:22;11.63;;;9.20;;
20140;SDS011;10231;47.702;9.826;2022-12-07T13:55:00;10.33;;;9.07;;
20140;SDS011;10231;47.702;9.826;2022-12-07T13:57:29;13.00;;;9.70;;
20140;SDS011;10231;47.702;9.826;2022-12-07T13:59:58;14.13;;;11.00;;
20140;SDS011;10231;47.702;9.826;2022-12-07T14:02:29;11.87;;;9.67;;
20140;SDS011;10231;47.702;9.826;2022-12-07T14:10:37;12.93;;;9.47;;
20140;SDS011;10231;47.702;9.826;2022-12-07T14:15:54;14.10;;;11.17;;
20140;SDS011;10231;47.702;9.826;2022-12-07T14:23:39;14.47;;;10.33;;
20140;SDS011;10231;47.702;9.826;2022-12-07T14:26:11;14.10;;;10.00;;
20140;SDS011;10231;47.702;9.826;2022-12-07T14:28:38;12.10;;;9.67;;
20140;SDS011;10231;47.702;9.826;2022-12-07T14:31:07;13.53;;;10.57;;
20140;SDS011;10231;47.702;9.826;2022-12-07T14:33:39;13.10;;;10.67;;
20140;SDS011;10231;47.702;9.826;2022-12-07T14:36:08;17.13;;;9.80;;
20140;SDS011;10231;47.702;9.826;2022-12-07T14:38:35;15.23;;;9.67;;
20140;SDS011;10231;47.702;9.826;2022-12-07T14:41:03;14.23;;;11.00;;
20140;SDS011;10231;47.702;9.826;2022-12-07T14:43:50;14.93;;;10.07;;
20140;SDS011;10231;47.702;9.826;2022-12-07T14:46:15;13.80;;;10.10;;
20140;SDS011;10231;47.702;9.826;2022-12-07T14:48:41;14.03;;;10.77;;
20140;SDS011;10231;47.702;9.826;2022-12-07T14:51:07;13.50;;;11.07;;
20140;SDS011;10231;47.702;9.826;2022-12-07T14:53:37;13.23;;;9.93;;
20140;SDS011;10231;47.702;9.826;2022-12-07T14:56:06;13.90;;;10.13;;
20140;SDS011;10231;47.702;9.826;2022-12-07T14:58:32;15.27;;;11.37;;
20140;SDS011;10231;47.702;9.826;2022-12-07T15:00:58;13.93;;;10.23;;
20140;SDS011;10231;47.702;9.826;2022-12-07T15:03:24;14.07;;;10.00;;
20140;SDS011;10231;47.702;9.826;2022-12-07T15:05:50;18.33;;;11.50;;
20140;SDS011;10231;47.702;9.826;2022-12-07T15:08:15;15.77;;;11.73;;
20140;SDS011;10231;47.702;9.826;2022-12-07T15:10:41;13.47;;;10.17;;
20140;SDS011;10231;47.702;9.826;2022-12-07T15:13:07;16.20;;;11.60;;
20140;SDS011;10231;47.702;9.826;2022-12-07T15:15:52;15.87;;;11.33;;
20140;SDS011;10231;47.702;9.826;2022-12-07T15:18:19;17.87;;;10.50;;
20140;SDS011;10231;47.702;9.826;2022-12-07T15:20:45;14.23;;;10.47;;
20140;SDS011;10231;47.702;9.826;2022-12-07T15:23:11;15.90;;;11.03;;
20140;SDS011;10231;47.702;9.826;2022-12-07T15:25:44;16.07;;;11.07;;
20140;SDS011;10231;47.702;9.826;2022-12-07T15:28:12;13.87;;;10.13;;
20140;SDS011;10231;47.702;9.826;2022-12-07T15:30:38;15.17;;;11.60;;
20140;SDS011;10231;47.702;9.826;2022-12-07T15:33:04;16.43;;;11.87;;
20140;SDS011;10231;47.702;9.826;2022-12-07T15:35:30;15.70;;;10.53;;
20140;SDS011;10231;47.702;9.826;2022-12-07T15:37:55;15.97;;;11.07;;
20140;SDS011;10231;47.702;9.826;2022-12-07T15:40:21;13.87;;;10.20;;
20140;SDS011;10231;47.702;9.826;2022-12-07T15:42:46;14.80;;;10.80;;
20140;SDS011;10231;47.702;9.826;2022-12-07T15:45:12;26.47;;;15.10;;
20140;SDS011;10231;47.702;9.826;2022-12-07T15:47:41;17.83;;;13.07;;
20140;SDS011;10231;47.702;9.826;2022-12-07T15:50:11;17.17;;;12.23;;
20140;SDS011;10231;47.702;9.826;2022-12-07T15:52:38;16.87;;;12.33;;
20140;SDS011;10231;47.702;9.826;2022-12-07T15:55:04;16.00;;;11.43;;
20140;SDS011;10231;47.702;9.826;2022-12-07T15:57:31;15.53;;;11.87;;
20140;SDS011;10231;47.702;9.826;2022-12-07T15:59:59;15.13;;;10.33;;
20140;SDS011;10231;47.702;9.826;2022-12-07T16:02:25;16.53;;;11.00;;
20140;SDS011;10231;47.702;9.826;2022-12-07T16:04:50;19.33;;;12.67;;
20140;SDS011;10231;47.702;9.826;2022-12-07T16:07:16;19.07;;;12.33;;
20140;SDS011;10231;47.702;9.826;2022-12-07T16:09:43;16.03;;;11.87;;
20140;SDS011;10231;47.702;9.826;2022-12-07T16:14:48;19.97;;;12.63;;
20140;SDS011;10231;47.702;9.826;2022-12-07T16:17:14;18.73;;;12.73;;
20140;SDS011;10231;47.702;9.826;2022-12-07T16:19:39;27.00;;;14.53;;
20140;SDS011;10231;47.702;9.826;2022-12-07T16:22:05;17.13;;;12.23;;
20140;SDS011;10231;47.702;9.826;2022-12-07T16:24:31;14.10;;;10.50;;
20140;SDS011;10231;47.702;9.826;2022-12-07T16:26:57;15.33;;;11.40;;
20140;SDS011;10231;47.702;9.826;2022-12-07T16:29:22;15.97;;;10.93;;
20140;SDS011;10231;47.702;9.826;2022-12-07T16:31:48;18.43;;;11.13;;
20140;SDS011;10231;47.702;9.826;2022-12-07T16:34:15;17.57;;;12.30;;
20140;SDS011;10231;47.702;9.826;2022-12-07T16:36:41;23.03;;;15.57;;
20140;SDS011;10231;47.702;9.826;2022-12-07T16:39:08;21.13;;;15.60;;
20140;SDS011;10231;47.702;9.826;2022-12-07T16:41:34;17.67;;;12.53;;
20140;SDS011;10231;47.702;9.826;2022-12-07T16:44:01;17.20;;;12.03;;
20140;SDS011;10231;47.702;9.826;2022-12-07T16:46:28;16.10;;;11.03;;
20140;SDS011;10231;47.702;9.826;2022-12-07T16:48:56;18.13;;;13.17;;
20140;SDS011;10231;47.702;9.826;2022-12-07T16:51:21;17.00;;;13.30;;
20140;SDS011;10231;47.702;9.826;2022-12-07T16:53:47;17.80;;;13.10;;
20140;SDS011;10231;47.702;9.826;2022-12-07T16:56:13;20.57;;;14.23;;